Time,TemperatureF,DewpointF,PressureIn,WindDirection,WindDirectionDegrees,WindSpeedMPH,WindSpeedGustMPH,Humidity,HourlyPrecipIn,Conditions,Clouds,dailyrainin,SoftwareType,DateUTC
2013-02-06 00:00:00,40.7,39.1,29.98,SSW,196,1.0,3.0,94,0.00,,,0.00,WeatherCatV1.11B39,2013-02-06 05:00:00,
2013-02-06 00:05:00,40.8,39.2,29.98,SSW,196,0.0,0.0,94,0.00,,,0.00,WeatherCatV1.11B39,2013-02-06 05:05:00,
2013-02-06 00:10:00,40.7,39.1,29.98,SSW,196,0.0,0.0,94,0.00,,,0.00,WeatherCatV1.11B39,2013-02-06 05:10:00,
2013-02-06 00:15:00,40.6,39.0,29.98,West,263,1.0,1.0,94,0.00,,,0.00,WeatherCatV1.11B39,2013-02-06 05:15:00,
2013-02-06 00:20:00,40.5,38.9,29.98,West,263,0.0,5.0,94,0.00,,,0.00,WeatherCatV1.11B39,2013-02-06 05:20:00,
2013-02-06 00:25:00,40.6,39.0,29.98,West,263,2.0,2.0,94,0.00,,,0.00,WeatherCatV1.11B39,2013-02-06 05:25:00,
2013-02-06 00:29:00,40.6,39.0,29.98,West,263,0.0,0.0,94,0.00,,,0.00,WeatherCatV1.11B39,2013-02-06 05:29:00,
2013-02-06 00:34:00,40.6,39.0,29.98,West,263,0.0,1.0,94,0.00,,,0.00,WeatherCatV1.11B39,2013-02-06 05:34:00,
2013-02-06 00:39:00,40.6,39.0,29.98,West,263,0.0,2.0,94,0.00,,,0.00,WeatherCatV1.11B39,2013-02-06 05:39:00,
2013-02-06 00:44:00,40.5,38.9,29.98,West,263,1.0,1.0,94,0.00,,,0.00,WeatherCatV1.11B39,2013-02-06 05:44:00,
2013-02-06 00:49:00,40.6,39.0,29.98,West,263,0.0,0.0,94,0.00,,,0.00,WeatherCatV1.11B39,2013-02-06 05:49:00,
2013-02-06 00:54:00,40.3,38.7,29.98,West,263,0.0,3.0,94,0.00,,,0.00,WeatherCatV1.11B39,2013-02-06 05:54:00,
2013-02-06 00:59:00,39.8,38.2,29.98,West,263,0.0,3.0,94,0.00,,,0.00,WeatherCatV1.11B39,2013-02-06 05:59:00,
2013-02-06 01:04:00,39.5,37.9,29.98,West,263,2.0,3.0,94,0.00,,,0.00,WeatherCatV1.11B39,2013-02-06 06:04:00,
2013-02-06 01:09:00,39.4,37.8,29.98,West,263,0.0,0.0,94,0.00,,,0.00,WeatherCatV1.11B39,2013-02-06 06:09:00,
2013-02-06 01:14:00,39.5,38.2,29.98,West,263,1.0,3.0,95,0.00,,,0.00,WeatherCatV1.11B39,2013-02-06 06:14:00,
2013-02-06 01:19:00,39.5,38.2,29.98,West,263,0.0,0.0,95,0.00,,,0.00,WeatherCatV1.11B39,2013-02-06 06:19:00,
2013-02-06 01:24:00,39.2,37.6,29.98,West,263,0.0,0.0,94,0.00,,,0.00,WeatherCatV1.11B39,2013-02-06 06:24:00,
2013-02-06 01:29:00,39.5,37.9,29.98,West,263,0.0,0.0,94,0.00,,,0.00,WeatherCatV1.11B39,2013-02-06 06:29:00,
2013-02-06 01:34:00,39.6,38.3,29.98,West,263,2.0,2.0,95,0.00,,,0.00,WeatherCatV1.11B39,2013-02-06 06:34:00,
2013-02-06 01:39:00,39.1,37.5,29.98,West,263,0.0,0.0,94,0.00,,,0.00,WeatherCatV1.11B39,2013-02-06 06:39:00,
2013-02-06 01:44:00,38.9,37.3,29.98,West,263,1.0,2.0,94,0.00,,,0.00,WeatherCatV1.11B39,2013-02-06 06:44:00,
2013-02-06 01:49:00,38.6,37.0,29.98,West,263,0.0,2.0,94,0.00,,,0.00,WeatherCatV1.11B39,2013-02-06 06:49:00,
2013-02-06 01:54:00,38.5,36.9,29.98,West,263,0.0,1.0,94,0.00,,,0.00,WeatherCatV1.11B39,2013-02-06 06:54:00,
2013-02-06 01:59:00,38.2,36.6,29.98,West,263,3.0,3.0,94,0.00,,,0.00,WeatherCatV1.11B39,2013-02-06 06:59:00,
2013-02-06 02:04:00,38.0,36.4,29.98,West,263,0.0,1.0,94,0.00,,,0.00,WeatherCatV1.11B39,2013-02-06 07:04:00,
2013-02-06 02:09:00,37.7,36.1,29.98,West,263,1.0,2.0,94,0.00,,,0.00,WeatherCatV1.11B39,2013-02-06 07:09:00,
2013-02-06 02:14:00,37.4,35.8,29.98,West,263,0.0,0.0,94,0.00,,,0.00,WeatherCatV1.11B39,2013-02-06 07:14:00,
2013-02-06 02:19:00,37.4,35.8,29.98,West,263,0.0,0.0,94,0.00,,,0.00,WeatherCatV1.11B39,2013-02-06 07:19:00,
2013-02-06 02:24:00,37.3,35.7,29.98,West,263,0.0,0.0,94,0.00,,,0.00,WeatherCatV1.11B39,2013-02-06 07:24:00,
2013-02-06 02:29:00,37.4,36.1,29.98,West,263,0.0,1.0,95,0.00,,,0.00,WeatherCatV1.11B39,2013-02-06 07:29:00,
2013-02-06 02:34:00,37.3,36.0,29.98,West,263,2.0,2.0,95,0.00,,,0.00,WeatherCatV1.11B39,2013-02-06 07:34:00,
2013-02-06 02:39:00,37.4,36.1,29.98,West,263,0.0,0.0,95,0.00,,,0.00,WeatherCatV1.11B39,2013-02-06 07:39:00,
2013-02-06 02:44:00,37.9,36.6,29.98,South,185,2.0,4.0,95,0.00,,,0.00,WeatherCatV1.11B39,2013-02-06 07:44:00,
2013-02-06 02:49:00,37.9,36.6,29.98,SSE,159,2.0,4.0,95,0.00,,,0.00,WeatherCatV1.11B39,2013-02-06 07:49:00,
2013-02-06 02:54:00,37.3,35.7,29.98,ENE,66,2.0,3.0,94,0.00,,,0.00,WeatherCatV1.11B39,2013-02-06 07:54:00,
2013-02-06 02:59:00,36.9,35.3,29.98,SE,142,4.0,5.0,94,0.00,,,0.00,WeatherCatV1.11B39,2013-02-06 07:59:00,
2013-02-06 03:04:00,36.4,34.8,29.98,SSW,207,0.0,2.0,94,0.00,,,0.00,WeatherCatV1.11B39,2013-02-06 08:04:00,
2013-02-06 03:09:00,36.0,34.4,29.98,SSW,208,0.0,2.0,94,0.00,,,0.00,WeatherCatV1.11B39,2013-02-06 08:09:00,
2013-02-06 03:14:00,36.0,34.4,29.98,SSW,208,0.0,1.0,94,0.00,,,0.00,WeatherCatV1.11B39,2013-02-06 08:14:00,
2013-02-06 03:19:00,36.3,35.0,29.98,SE,127,0.0,0.0,95,0.00,,,0.00,WeatherCatV1.11B39,2013-02-06 08:19:00,
2013-02-06 03:24:00,36.2,34.6,29.99,SE,126,1.0,2.0,94,0.00,,,0.00,WeatherCatV1.11B39,2013-02-06 08:24:00,
2013-02-06 03:29:00,36.4,35.1,29.99,ENE,66,1.0,4.0,95,0.00,,,0.00,WeatherCatV1.11B39,2013-02-06 08:29:00,
2013-02-06 03:34:00,37.2,35.9,29.99,ENE,66,0.0,2.0,95,0.00,,,0.00,WeatherCatV1.11B39,2013-02-06 08:34:00,
2013-02-06 03:39:00,37.0,35.7,29.99,ESE,103,1.0,5.0,95,0.00,,,0.00,WeatherCatV1.11B39,2013-02-06 08:39:00,
2013-02-06 03:44:00,36.9,35.6,29.99,ESE,103,0.0,2.0,95,0.00,,,0.00,WeatherCatV1.11B39,2013-02-06 08:44:00,
2013-02-06 03:49:00,37.2,35.9,29.99,ESE,103,0.0,1.0,95,0.00,,,0.00,WeatherCatV1.11B39,2013-02-06 08:49:00,
2013-02-06 03:54:00,37.1,35.8,30.00,ESE,103,0.0,2.0,95,0.00,,,0.00,WeatherCatV1.11B39,2013-02-06 08:54:00,
2013-02-06 03:59:00,37.1,35.8,29.99,ESE,103,1.0,1.0,95,0.00,,,0.00,WeatherCatV1.11B39,2013-02-06 08:59:00,
2013-02-06 04:04:00,37.4,36.1,29.99,WSW,258,0.0,4.0,95,0.00,,,0.00,WeatherCatV1.11B39,2013-02-06 09:04:00,
2013-02-06 04:09:00,37.7,36.4,30.00,West,259,0.0,2.0,95,0.00,,,0.00,WeatherCatV1.11B39,2013-02-06 09:09:00,
2013-02-06 04:14:00,38.0,36.7,30.00,West,259,0.0,0.0,95,0.00,,,0.00,WeatherCatV1.11B39,2013-02-06 09:14:00,
2013-02-06 04:19:00,38.0,36.7,30.00,West,259,0.0,0.0,95,0.00,,,0.00,WeatherCatV1.11B39,2013-02-06 09:19:00,
2013-02-06 04:24:00,38.1,36.8,30.00,West,259,0.0,2.0,95,0.00,,,0.00,WeatherCatV1.11B39,2013-02-06 09:24:00,
2013-02-06 04:29:00,38.2,36.9,30.00,West,259,0.0,2.0,95,0.00,,,0.00,WeatherCatV1.11B39,2013-02-06 09:29:00,
2013-02-06 04:34:00,38.7,37.4,30.00,West,259,2.0,2.0,95,0.00,,,0.00,WeatherCatV1.11B39,2013-02-06 09:34:00,
2013-02-06 04:39:00,39.0,37.7,30.00,West,259,1.0,2.0,95,0.00,,,0.00,WeatherCatV1.11B39,2013-02-06 09:39:00,
2013-02-06 04:44:00,39.2,37.9,30.01,West,259,0.0,2.0,95,0.00,,,0.00,WeatherCatV1.11B39,2013-02-06 09:44:00,
2013-02-06 04:49:00,39.4,38.1,30.01,West,259,0.0,0.0,95,0.00,,,0.00,WeatherCatV1.11B39,2013-02-06 09:49:00,
2013-02-06 04:52:00,39.7,38.4,30.01,West,259,0.0,0.0,95,0.00,,,0.00,WeatherCatV1.11B39,2013-02-06 09:52:00,
2013-02-06 04:57:00,39.7,38.4,30.01,West,259,2.0,2.0,95,0.00,,,0.00,WeatherCatV1.11B39,2013-02-06 09:57:00,
2013-02-06 05:02:00,39.8,38.2,30.01,West,259,2.0,2.0,94,0.00,,,0.00,WeatherCatV1.11B39,2013-02-06 10:02:00,
2013-02-06 05:07:00,39.8,38.2,30.01,West,259,3.0,3.0,94,0.00,,,0.00,WeatherCatV1.11B39,2013-02-06 10:07:00,
2013-02-06 05:12:00,39.8,37.9,30.01,West,259,0.0,0.0,93,0.00,,,0.00,WeatherCatV1.11B39,2013-02-06 10:12:00,
2013-02-06 05:17:00,39.8,37.9,30.01,West,259,0.0,1.0,93,0.00,,,0.00,WeatherCatV1.11B39,2013-02-06 10:17:00,
2013-02-06 05:22:00,39.9,37.8,30.01,West,259,0.0,0.0,92,0.00,,,0.00,WeatherCatV1.11B39,2013-02-06 10:22:00,
2013-02-06 05:27:00,39.7,37.6,30.01,West,259,0.0,0.0,92,0.00,,,0.00,WeatherCatV1.11B39,2013-02-06 10:27:00,
2013-02-06 05:32:00,39.5,37.4,30.02,West,259,0.0,0.0,92,0.00,,,0.00,WeatherCatV1.11B39,2013-02-06 10:32:00,
2013-02-06 05:37:00,39.2,37.1,30.02,West,259,0.0,0.0,92,0.00,,,0.00,WeatherCatV1.11B39,2013-02-06 10:37:00,
2013-02-06 05:42:00,38.7,36.3,30.02,West,259,0.0,0.0,91,0.00,,,0.00,WeatherCatV1.11B39,2013-02-06 10:42:00,
2013-02-06 05:47:00,38.6,36.5,30.03,West,259,0.0,0.0,92,0.00,,,0.00,WeatherCatV1.11B39,2013-02-06 10:47:00,
2013-02-06 05:52:00,38.4,36.6,30.03,West,259,0.0,0.0,93,0.00,,,0.00,WeatherCatV1.11B39,2013-02-06 10:52:00,
2013-02-06 05:57:00,38.2,36.1,30.03,West,259,0.0,0.0,92,0.00,,,0.00,WeatherCatV1.11B39,2013-02-06 10:57:00,
2013-02-06 06:02:00,38.0,36.2,30.03,West,259,0.0,0.0,93,0.00,,,0.00,WeatherCatV1.11B39,2013-02-06 11:02:00,
2013-02-06 06:07:00,37.7,35.9,30.04,West,259,0.0,0.0,93,0.00,,,0.00,WeatherCatV1.11B39,2013-02-06 11:07:00,
2013-02-06 06:12:00,37.6,35.8,30.03,West,259,0.0,0.0,93,0.00,,,0.00,WeatherCatV1.11B39,2013-02-06 11:12:00,
2013-02-06 06:17:00,37.5,35.4,30.04,West,259,0.0,0.0,92,0.00,,,0.00,WeatherCatV1.11B39,2013-02-06 11:17:00,
2013-02-06 06:22:00,37.4,35.6,30.04,West,259,3.0,3.0,93,0.00,,,0.00,WeatherCatV1.11B39,2013-02-06 11:22:00,
2013-02-06 06:27:00,37.3,35.5,30.04,West,259,0.0,2.0,93,0.00,,,0.00,WeatherCatV1.11B39,2013-02-06 11:27:00,
2013-02-06 06:32:00,37.5,35.7,30.05,West,259,1.0,2.0,93,0.00,,,0.00,WeatherCatV1.11B39,2013-02-06 11:32:00,
2013-02-06 06:37:00,37.5,35.7,30.05,West,259,0.0,0.0,93,0.00,,,0.00,WeatherCatV1.11B39,2013-02-06 11:37:00,
2013-02-06 06:42:00,37.5,35.4,30.05,West,259,0.0,0.0,92,0.00,,,0.00,WeatherCatV1.11B39,2013-02-06 11:42:00,
2013-02-06 06:47:00,37.3,35.2,30.05,West,259,1.0,2.0,92,0.00,,,0.00,WeatherCatV1.11B39,2013-02-06 11:47:00,
2013-02-06 06:52:00,37.3,35.2,30.05,West,259,0.0,0.0,92,0.00,,,0.00,WeatherCatV1.11B39,2013-02-06 11:52:00,
2013-02-06 06:57:00,37.2,35.1,30.05,West,259,0.0,0.0,92,0.00,,,0.00,WeatherCatV1.11B39,2013-02-06 11:57:00,
2013-02-06 07:02:00,37.1,35.0,30.06,West,259,0.0,0.0,92,0.00,,,0.00,WeatherCatV1.11B39,2013-02-06 12:02:00,
2013-02-06 07:07:00,37.0,34.9,30.06,West,259,0.0,0.0,92,0.00,,,0.00,WeatherCatV1.11B39,2013-02-06 12:07:00,
2013-02-06 07:12:00,36.9,34.8,30.06,West,259,2.0,2.0,92,0.00,,,0.00,WeatherCatV1.11B39,2013-02-06 12:12:00,
2013-02-06 07:17:00,36.8,35.0,30.06,West,259,0.0,1.0,93,0.00,,,0.00,WeatherCatV1.11B39,2013-02-06 12:17:00,
2013-02-06 07:22:00,36.7,34.6,30.06,West,259,0.0,0.0,92,0.00,,,0.00,WeatherCatV1.11B39,2013-02-06 12:22:00,
2013-02-06 07:27:00,36.6,34.5,30.07,West,259,1.0,1.0,92,0.00,,,0.00,WeatherCatV1.11B39,2013-02-06 12:27:00,
2013-02-06 07:32:00,36.7,34.9,30.07,West,259,0.0,2.0,93,0.00,,,0.00,WeatherCatV1.11B39,2013-02-06 12:32:00,
2013-02-06 07:37:00,36.6,34.8,30.07,West,259,0.0,0.0,93,0.00,,,0.00,WeatherCatV1.11B39,2013-02-06 12:37:00,
2013-02-06 07:42:00,36.5,34.4,30.07,West,259,0.0,1.0,92,0.00,,,0.00,WeatherCatV1.11B39,2013-02-06 12:42:00,
2013-02-06 07:47:00,36.3,34.2,30.08,West,259,2.0,3.0,92,0.00,,,0.00,WeatherCatV1.11B39,2013-02-06 12:47:00,
2013-02-06 07:52:00,36.2,34.4,30.08,West,259,0.0,0.0,93,0.00,,,0.00,WeatherCatV1.11B39,2013-02-06 12:52:00,
2013-02-06 07:57:00,35.9,33.8,30.08,West,259,0.0,0.0,92,0.00,,,0.00,WeatherCatV1.11B39,2013-02-06 12:57:00,
2013-02-06 08:01:00,35.8,33.7,30.08,West,259,0.0,2.0,92,0.00,,,0.00,WeatherCatV1.11B39,2013-02-06 13:01:00,
2013-02-06 08:06:00,35.7,33.9,30.08,West,259,0.0,0.0,93,0.00,,,0.00,WeatherCatV1.11B39,2013-02-06 13:06:00,
2013-02-06 08:11:00,35.7,33.9,30.08,West,259,0.0,0.0,93,0.00,,,0.00,WeatherCatV1.11B39,2013-02-06 13:11:00,
2013-02-06 08:16:00,35.9,34.1,30.08,West,259,0.0,0.0,93,0.00,,,0.00,WeatherCatV1.11B39,2013-02-06 13:16:00,
2013-02-06 08:21:00,36.1,34.5,30.08,West,259,0.0,2.0,94,0.00,,,0.00,WeatherCatV1.11B39,2013-02-06 13:21:00,
2013-02-06 08:26:00,36.5,34.7,30.09,West,259,1.0,2.0,93,0.00,,,0.00,WeatherCatV1.11B39,2013-02-06 13:26:00,
2013-02-06 08:31:00,37.2,35.6,30.09,West,259,0.0,0.0,94,0.00,,,0.00,WeatherCatV1.11B39,2013-02-06 13:31:00,
2013-02-06 08:36:00,37.8,35.7,30.09,West,259,0.0,1.0,92,0.00,,,0.00,WeatherCatV1.11B39,2013-02-06 13:36:00,
2013-02-06 08:41:00,38.2,36.1,30.09,West,259,0.0,0.0,92,0.00,,,0.00,WeatherCatV1.11B39,2013-02-06 13:41:00,
2013-02-06 08:46:00,38.9,37.1,30.09,West,259,0.0,0.0,93,0.00,,,0.00,WeatherCatV1.11B39,2013-02-06 13:46:00,
2013-02-06 08:51:00,39.4,37.3,30.09,West,259,0.0,0.0,92,0.00,,,0.00,WeatherCatV1.11B39,2013-02-06 13:51:00,
2013-02-06 08:56:00,39.8,37.7,30.09,West,259,0.0,0.0,92,0.00,,,0.00,WeatherCatV1.11B39,2013-02-06 13:56:00,
2013-02-06 09:01:00,40.3,38.2,30.10,West,259,0.0,0.0,92,0.00,,,0.00,WeatherCatV1.11B39,2013-02-06 14:01:00,
2013-02-06 09:06:00,40.4,38.0,30.10,West,259,2.0,2.0,91,0.00,,,0.00,WeatherCatV1.11B39,2013-02-06 14:06:00,
2013-02-06 09:11:00,40.2,37.8,30.10,West,259,0.0,0.0,91,0.00,,,0.00,WeatherCatV1.11B39,2013-02-06 14:11:00,
2013-02-06 09:16:00,40.5,38.4,30.10,West,259,0.0,0.0,92,0.00,,,0.00,WeatherCatV1.11B39,2013-02-06 14:16:00,
2013-02-06 09:21:00,41.3,39.7,30.10,West,259,0.0,0.0,94,0.00,,,0.00,WeatherCatV1.11B39,2013-02-06 14:21:00,
2013-02-06 09:26:00,42.1,40.2,30.10,West,259,0.0,0.0,93,0.00,,,0.00,WeatherCatV1.11B39,2013-02-06 14:26:00,
2013-02-06 09:31:00,43.2,41.0,30.10,West,259,0.0,0.0,92,0.00,,,0.00,WeatherCatV1.11B39,2013-02-06 14:31:00,
2013-02-06 09:36:00,44.1,41.4,30.10,SSW,200,0.0,0.0,90,0.00,,,0.00,WeatherCatV1.11B39,2013-02-06 14:36:00,
2013-02-06 09:41:00,45.4,42.6,30.10,SSW,200,0.0,0.0,90,0.00,,,0.00,WeatherCatV1.11B39,2013-02-06 14:41:00,
2013-02-06 09:46:00,46.4,42.4,30.10,SSW,200,0.0,0.0,86,0.00,,,0.00,WeatherCatV1.11B39,2013-02-06 14:46:00,
2013-02-06 09:51:00,47.3,41.8,30.10,SSW,200,0.0,2.0,81,0.00,,,0.00,WeatherCatV1.11B39,2013-02-06 14:51:00,
2013-02-06 09:56:00,48.1,41.6,30.11,South,175,1.0,2.0,78,0.00,,,0.00,WeatherCatV1.11B39,2013-02-06 14:56:00,
2013-02-06 10:01:00,48.8,41.2,30.11,South,169,1.0,4.0,75,0.00,,,0.00,WeatherCatV1.11B39,2013-02-06 15:01:00,
2013-02-06 10:06:00,49.7,41.4,30.11,SSE,165,0.0,4.0,73,0.00,,,0.00,WeatherCatV1.11B39,2013-02-06 15:06:00,
2013-02-06 10:11:00,50.6,41.2,30.11,SE,146,4.0,6.0,70,0.00,,,0.00,WeatherCatV1.11B39,2013-02-06 15:11:00,
2013-02-06 10:16:00,51.3,41.9,30.11,SE,146,4.0,4.0,70,0.00,,,0.00,WeatherCatV1.11B39,2013-02-06 15:16:00,
2013-02-06 10:21:00,52.1,39.5,30.11,SE,143,5.0,5.0,62,0.00,,,0.00,WeatherCatV1.11B39,2013-02-06 15:21:00,
2013-02-06 10:26:00,52.9,38.1,30.11,SE,145,6.0,7.0,57,0.00,,,0.00,WeatherCatV1.11B39,2013-02-06 15:26:00,
2013-02-06 10:31:00,53.3,37.5,30.11,SE,144,5.0,7.0,55,0.00,,,0.00,WeatherCatV1.11B39,2013-02-06 15:31:00,
2013-02-06 10:36:00,53.8,38.0,30.11,SE,128,4.0,6.0,55,0.00,,,0.00,WeatherCatV1.11B39,2013-02-06 15:36:00,
2013-02-06 10:41:00,54.4,37.1,30.11,SE,135,5.0,5.0,52,0.00,,,0.00,WeatherCatV1.11B39,2013-02-06 15:41:00,
2013-02-06 10:46:00,54.9,36.6,30.11,SE,135,0.0,1.0,50,0.00,,,0.00,WeatherCatV1.11B39,2013-02-06 15:46:00,
2013-02-06 10:51:00,55.3,35.9,30.11,SE,136,2.0,4.0,48,0.00,,,0.00,WeatherCatV1.11B39,2013-02-06 15:51:00,
2013-02-06 10:56:00,55.7,35.2,30.11,SE,130,1.0,4.0,46,0.00,,,0.00,WeatherCatV1.11B39,2013-02-06 15:56:00,
2013-02-06 11:01:00,56.2,34.0,30.11,SSE,155,4.0,5.0,43,0.00,,,0.00,WeatherCatV1.11B39,2013-02-06 16:01:00,
2013-02-06 11:06:00,56.5,33.7,30.11,SE,145,2.0,5.0,42,0.00,,,0.00,WeatherCatV1.11B39,2013-02-06 16:06:00,
2013-02-06 11:11:00,57.0,35.9,30.11,NE,47,1.0,3.0,45,0.00,,,0.00,WeatherCatV1.11B39,2013-02-06 16:11:00,
2013-02-06 11:16:00,57.7,33.5,30.11,NE,46,0.0,2.0,40,0.00,,,0.00,WeatherCatV1.11B39,2013-02-06 16:16:00,
2013-02-06 11:21:00,58.4,32.9,30.11,NE,46,0.0,2.0,38,0.00,,,0.00,WeatherCatV1.11B39,2013-02-06 16:21:00,
2013-02-06 11:26:00,58.8,33.3,30.11,East,94,0.0,1.0,38,0.00,,,0.00,WeatherCatV1.11B39,2013-02-06 16:26:00,
2013-02-06 11:31:00,59.0,31.4,30.11,SE,130,5.0,8.0,35,0.00,,,0.00,WeatherCatV1.11B39,2013-02-06 16:31:00,
2013-02-06 11:36:00,58.7,31.1,30.10,SE,134,5.0,5.0,35,0.00,,,0.00,WeatherCatV1.11B39,2013-02-06 16:36:00,
2013-02-06 11:41:00,58.9,32.0,30.10,SSE,158,6.0,7.0,36,0.00,,,0.00,WeatherCatV1.11B39,2013-02-06 16:41:00,
2013-02-06 11:46:00,59.0,30.7,30.10,SE,134,4.0,5.0,34,0.00,,,0.00,WeatherCatV1.11B39,2013-02-06 16:46:00,
2013-02-06 11:51:00,59.4,31.7,30.10,East,88,1.0,3.0,35,0.00,,,0.00,WeatherCatV1.11B39,2013-02-06 16:51:00,
2013-02-06 11:56:00,59.8,28.3,30.10,WSW,248,4.0,8.0,30,0.00,,,0.00,WeatherCatV1.11B39,2013-02-06 16:56:00,
2013-02-06 12:01:00,60.3,28.7,30.10,West,267,2.0,6.0,30,0.00,,,0.00,WeatherCatV1.11B39,2013-02-06 17:01:00,
2013-02-06 12:06:00,60.6,27.3,30.11,WNW,291,7.0,8.0,28,0.00,,,0.00,WeatherCatV1.11B39,2013-02-06 17:06:00,
2013-02-06 12:11:00,60.8,27.5,30.10,WSW,240,5.0,9.0,28,0.00,,,0.00,WeatherCatV1.11B39,2013-02-06 17:11:00,
2013-02-06 12:16:00,61.0,28.5,30.10,SW,235,6.0,6.0,29,0.00,,,0.00,WeatherCatV1.11B39,2013-02-06 17:16:00,
2013-02-06 12:21:00,61.1,27.8,30.10,West,263,7.0,10.0,28,0.00,,,0.00,WeatherCatV1.11B39,2013-02-06 17:21:00,
2013-02-06 12:26:00,60.9,27.6,30.10,WSW,242,6.0,8.0,28,0.00,,,0.00,WeatherCatV1.11B39,2013-02-06 17:26:00,
2013-02-06 12:31:00,60.8,27.5,30.10,West,278,4.0,7.0,28,0.00,,,0.00,WeatherCatV1.11B39,2013-02-06 17:31:00,
2013-02-06 12:36:00,60.8,27.5,30.10,WNW,300,5.0,7.0,28,0.00,,,0.00,WeatherCatV1.11B39,2013-02-06 17:36:00,
2013-02-06 12:41:00,60.9,30.1,30.10,SSE,151,6.0,8.0,31,0.00,,,0.00,WeatherCatV1.11B39,2013-02-06 17:41:00,
2013-02-06 12:46:00,61.3,30.4,30.09,SW,227,8.0,11.0,31,0.00,,,0.00,WeatherCatV1.11B39,2013-02-06 17:46:00,
2013-02-06 12:51:00,61.5,28.1,30.09,South,171,5.0,6.0,28,0.00,,,0.00,WeatherCatV1.11B39,2013-02-06 17:51:00,
2013-02-06 12:56:00,61.6,28.2,30.09,SSW,198,6.0,7.0,28,0.00,,,0.00,WeatherCatV1.11B39,2013-02-06 17:56:00,
2013-02-06 13:00:00,62.0,32.6,30.09,SE,145,2.0,2.0,33,0.00,,,0.00,WeatherCatV1.11B39,2013-02-06 18:00:00,
2013-02-06 13:05:00,62.8,30.9,30.08,WNW,291,7.0,9.0,30,0.00,,,0.00,WeatherCatV1.11B39,2013-02-06 18:05:00,
2013-02-06 13:10:00,62.9,29.3,30.08,NNW,327,6.0,13.0,28,0.00,,,0.00,WeatherCatV1.11B39,2013-02-06 18:10:00,
2013-02-06 13:15:00,62.9,28.4,30.08,NW,304,7.0,11.0,27,0.00,,,0.00,WeatherCatV1.11B39,2013-02-06 18:15:00,
2013-02-06 13:20:00,63.1,29.5,30.08,WSW,237,5.0,9.0,28,0.00,,,0.00,WeatherCatV1.11B39,2013-02-06 18:20:00,
2013-02-06 13:25:00,63.0,29.4,30.08,NNW,329,5.0,10.0,28,0.00,,,0.00,WeatherCatV1.11B39,2013-02-06 18:25:00,
2013-02-06 13:30:00,62.6,29.0,30.08,WSW,240,2.0,5.0,28,0.00,,,0.00,WeatherCatV1.11B39,2013-02-06 18:30:00,
2013-02-06 13:35:00,62.7,30.8,30.08,West,280,8.0,9.0,30,0.00,,,0.00,WeatherCatV1.11B39,2013-02-06 18:35:00,
2013-02-06 13:40:00,63.1,28.6,30.07,South,172,6.0,6.0,27,0.00,,,0.00,WeatherCatV1.11B39,2013-02-06 18:40:00,
2013-02-06 13:45:00,63.4,30.6,30.07,West,273,7.0,10.0,29,0.00,,,0.00,WeatherCatV1.11B39,2013-02-06 18:45:00,
2013-02-06 13:50:00,63.4,27.0,30.07,WNW,287,11.0,14.0,25,0.00,,,0.00,WeatherCatV1.11B39,2013-02-06 18:50:00,
2013-02-06 13:55:00,63.5,28.9,30.07,WSW,249,6.0,6.0,27,0.00,,,0.00,WeatherCatV1.11B39,2013-02-06 18:55:00,
2013-02-06 14:00:00,63.6,27.1,30.07,WSW,257,6.0,12.0,25,0.00,,,0.00,WeatherCatV1.11B39,2013-02-06 19:00:00,
2013-02-06 14:05:00,63.5,27.1,30.07,WNW,284,7.0,11.0,25,0.00,,,0.00,WeatherCatV1.11B39,2013-02-06 19:05:00,
2013-02-06 14:10:00,63.6,28.1,30.06,West,278,1.0,4.0,26,0.00,,,0.00,WeatherCatV1.11B39,2013-02-06 19:10:00,
2013-02-06 14:15:00,64.0,30.2,30.06,WSW,246,7.0,10.0,28,0.00,,,0.00,WeatherCatV1.11B39,2013-02-06 19:15:00,
2013-02-06 14:20:00,63.7,27.2,30.06,WSW,251,8.0,8.0,25,0.00,,,0.00,WeatherCatV1.11B39,2013-02-06 19:20:00,
2013-02-06 14:25:00,63.6,27.1,30.06,SSW,192,5.0,8.0,25,0.00,,,0.00,WeatherCatV1.11B39,2013-02-06 19:25:00,
2013-02-06 14:30:00,63.9,27.4,30.06,SE,142,10.0,11.0,25,0.00,,,0.00,WeatherCatV1.11B39,2013-02-06 19:30:00,
2013-02-06 14:35:00,63.8,30.1,30.06,SSE,164,6.0,9.0,28,0.00,,,0.00,WeatherCatV1.11B39,2013-02-06 19:35:00,
2013-02-06 14:40:00,63.9,27.4,30.06,West,267,10.0,10.0,25,0.00,,,0.00,WeatherCatV1.11B39,2013-02-06 19:40:00,
2013-02-06 14:45:00,64.0,27.5,30.06,South,172,6.0,11.0,25,0.00,,,0.00,WeatherCatV1.11B39,2013-02-06 19:45:00,
2013-02-06 14:50:00,64.4,28.8,30.05,SW,236,7.0,11.0,26,0.00,,,0.00,WeatherCatV1.11B39,2013-02-06 19:50:00,
2013-02-06 14:55:00,64.5,30.7,30.05,SSE,156,4.0,5.0,28,0.00,,,0.00,WeatherCatV1.11B39,2013-02-06 19:55:00,
2013-02-06 15:00:00,64.8,28.2,30.05,SW,233,5.0,6.0,25,0.00,,,0.00,WeatherCatV1.11B39,2013-02-06 20:00:00,
2013-02-06 15:05:00,64.6,28.0,30.05,SW,216,7.0,11.0,25,0.00,,,0.00,WeatherCatV1.11B39,2013-02-06 20:05:00,
2013-02-06 15:10:00,64.6,28.0,30.06,West,273,9.0,10.0,25,0.00,,,0.00,WeatherCatV1.11B39,2013-02-06 20:10:00,
2013-02-06 15:15:00,64.5,27.9,30.06,SSE,150,2.0,7.0,25,0.00,,,0.00,WeatherCatV1.11B39,2013-02-06 20:15:00,
2013-02-06 15:20:00,64.4,27.8,30.06,SE,139,0.0,2.0,25,0.00,,,0.00,WeatherCatV1.11B39,2013-02-06 20:20:00,
2013-02-06 15:25:00,64.5,27.9,30.06,SSE,153,9.0,15.0,25,0.00,,,0.00,WeatherCatV1.11B39,2013-02-06 20:25:00,
2013-02-06 15:30:00,64.1,27.6,30.06,SE,141,7.0,9.0,25,0.00,,,0.00,WeatherCatV1.11B39,2013-02-06 20:30:00,
2013-02-06 15:35:00,64.0,28.4,30.05,SE,130,7.0,8.0,26,0.00,,,0.00,WeatherCatV1.11B39,2013-02-06 20:35:00,
2013-02-06 15:40:00,64.1,30.3,30.05,South,190,3.0,9.0,28,0.00,,,0.00,WeatherCatV1.11B39,2013-02-06 20:40:00,
2013-02-06 15:45:00,64.6,28.9,30.05,SW,221,0.0,3.0,26,0.00,,,0.00,WeatherCatV1.11B39,2013-02-06 20:45:00,
2013-02-06 15:50:00,64.7,28.1,30.05,West,264,4.0,11.0,25,0.00,,,0.00,WeatherCatV1.11B39,2013-02-06 20:50:00,
2013-02-06 15:55:00,64.7,29.0,30.05,WNW,296,8.0,8.0,26,0.00,,,0.00,WeatherCatV1.11B39,2013-02-06 20:55:00,
2013-02-06 16:00:00,64.9,29.2,30.05,West,270,4.0,6.0,26,0.00,,,0.00,WeatherCatV1.11B39,2013-02-06 21:00:00,
2013-02-06 16:05:00,64.8,28.2,30.04,SSE,153,5.0,7.0,25,0.00,,,0.00,WeatherCatV1.11B39,2013-02-06 21:05:00,
2013-02-06 16:10:00,64.8,29.1,30.04,West,277,9.0,12.0,26,0.00,,,0.00,WeatherCatV1.11B39,2013-02-06 21:10:00,
2013-02-06 16:15:00,64.8,29.1,30.04,WNW,299,6.0,7.0,26,0.00,,,0.00,WeatherCatV1.11B39,2013-02-06 21:15:00,
2013-02-06 16:20:00,64.8,29.1,30.04,WNW,289,2.0,7.0,26,0.00,,,0.00,WeatherCatV1.11B39,2013-02-06 21:20:00,
2013-02-06 16:25:00,65.2,30.4,30.03,NW,315,5.0,8.0,27,0.00,,,0.00,WeatherCatV1.11B39,2013-02-06 21:25:00,
2013-02-06 16:30:00,65.4,29.6,30.04,WNW,294,4.0,4.0,26,0.00,,,0.00,WeatherCatV1.11B39,2013-02-06 21:30:00,
2013-02-06 16:35:00,65.5,29.7,30.03,NNW,328,1.0,1.0,26,0.00,,,0.00,WeatherCatV1.11B39,2013-02-06 21:35:00,
2013-02-06 16:40:00,65.5,28.7,30.03,WNW,294,5.0,7.0,25,0.00,,,0.00,WeatherCatV1.11B39,2013-02-06 21:40:00,
2013-02-06 16:45:00,65.3,29.5,30.03,NW,313,1.0,6.0,26,0.00,,,0.00,WeatherCatV1.11B39,2013-02-06 21:45:00,
2013-02-06 16:50:00,65.5,28.7,30.04,NW,311,2.0,6.0,25,0.00,,,0.00,WeatherCatV1.11B39,2013-02-06 21:50:00,
2013-02-06 16:55:00,65.6,29.8,30.04,NNW,328,5.0,6.0,26,0.00,,,0.00,WeatherCatV1.11B39,2013-02-06 21:55:00,
2013-02-06 17:00:00,65.6,29.8,30.04,WNW,298,4.0,4.0,26,0.00,,,0.00,WeatherCatV1.11B39,2013-02-06 22:00:00,
2013-02-06 17:05:00,65.1,30.3,30.04,WNW,298,2.0,5.0,27,0.00,,,0.00,WeatherCatV1.11B39,2013-02-06 22:05:00,
2013-02-06 17:10:00,64.8,29.1,30.04,WNW,298,1.0,2.0,26,0.00,,,0.00,WeatherCatV1.11B39,2013-02-06 22:10:00,
2013-02-06 17:15:00,64.8,29.1,30.04,WNW,298,0.0,2.0,26,0.00,,,0.00,WeatherCatV1.11B39,2013-02-06 22:15:00,
2013-02-06 17:20:00,64.8,30.0,30.04,WNW,296,2.0,8.0,27,0.00,,,0.00,WeatherCatV1.11B39,2013-02-06 22:20:00,
2013-02-06 17:25:00,64.5,29.8,30.04,WNW,298,0.0,5.0,27,0.00,,,0.00,WeatherCatV1.11B39,2013-02-06 22:25:00,
2013-02-06 17:30:00,64.4,30.6,30.04,WNW,299,6.0,6.0,28,0.00,,,0.00,WeatherCatV1.11B39,2013-02-06 22:30:00,
2013-02-06 17:35:00,64.1,30.3,30.04,WNW,300,2.0,4.0,28,0.00,,,0.00,WeatherCatV1.11B39,2013-02-06 22:35:00,
2013-02-06 17:40:00,63.6,30.8,30.04,NNW,331,6.0,7.0,29,0.00,,,0.00,WeatherCatV1.11B39,2013-02-06 22:40:00,
2013-02-06 17:45:00,63.2,29.6,30.04,NNW,327,2.0,6.0,28,0.00,,,0.00,WeatherCatV1.11B39,2013-02-06 22:45:00,
2013-02-06 17:50:00,63.0,30.2,30.04,NNW,327,2.0,4.0,29,0.00,,,0.00,WeatherCatV1.11B39,2013-02-06 22:50:00,
2013-02-06 17:55:00,62.7,30.0,30.04,NNW,327,0.0,0.0,29,0.00,,,0.00,WeatherCatV1.11B39,2013-02-06 22:55:00,
2013-02-06 18:00:00,62.3,30.5,30.05,NNW,327,0.0,4.0,30,0.00,,,0.00,WeatherCatV1.11B39,2013-02-06 23:00:00,
2013-02-06 18:04:00,61.9,30.1,30.05,NNW,327,1.0,2.0,30,0.00,,,0.00,WeatherCatV1.11B39,2013-02-06 23:04:00,
2013-02-06 18:09:00,61.5,29.8,30.05,NNW,327,0.0,1.0,30,0.00,,,0.00,WeatherCatV1.11B39,2013-02-06 23:09:00,
2013-02-06 18:14:00,61.0,31.7,30.05,NNW,327,0.0,2.0,33,0.00,,,0.00,WeatherCatV1.11B39,2013-02-06 23:14:00,
2013-02-06 18:19:00,60.3,31.1,30.05,NNW,327,1.0,2.0,33,0.00,,,0.00,WeatherCatV1.11B39,2013-02-06 23:19:00,
2013-02-06 18:24:00,59.7,30.6,30.05,NNW,327,0.0,4.0,33,0.00,,,0.00,WeatherCatV1.11B39,2013-02-06 23:24:00,
2013-02-06 18:29:00,59.1,30.8,30.04,NNW,327,2.0,2.0,34,0.00,,,0.00,WeatherCatV1.11B39,2013-02-06 23:29:00,
2013-02-06 18:34:00,58.4,30.1,30.04,NNW,327,1.0,5.0,34,0.00,,,0.00,WeatherCatV1.11B39,2013-02-06 23:34:00,
2013-02-06 18:39:00,58.0,29.8,30.05,NNW,327,1.0,5.0,34,0.00,,,0.00,WeatherCatV1.11B39,2013-02-06 23:39:00,
2013-02-06 18:44:00,57.5,30.8,30.05,NNW,327,4.0,4.0,36,0.00,,,0.00,WeatherCatV1.11B39,2013-02-06 23:44:00,
2013-02-06 18:49:00,56.9,30.2,30.05,NNW,327,1.0,2.0,36,0.00,,,0.00,WeatherCatV1.11B39,2013-02-06 23:49:00,
2013-02-06 18:54:00,56.5,30.5,30.05,NNW,327,1.0,2.0,37,0.00,,,0.00,WeatherCatV1.11B39,2013-02-06 23:54:00,
2013-02-06 18:59:00,55.7,31.1,30.05,NNW,327,0.0,2.0,39,0.00,,,0.00,WeatherCatV1.11B39,2013-02-06 23:59:00,
2013-02-06 19:04:00,55.0,33.5,30.05,NNW,327,0.0,0.0,44,0.00,,,0.00,WeatherCatV1.11B39,2013-02-07 00:04:00,
2013-02-06 19:09:00,54.1,34.3,30.05,NNW,327,0.0,0.0,47,0.00,,,0.00,WeatherCatV1.11B39,2013-02-07 00:09:00,
2013-02-06 19:14:00,53.4,33.7,30.06,NNW,327,0.0,0.0,47,0.00,,,0.00,WeatherCatV1.11B39,2013-02-07 00:14:00,
2013-02-06 19:19:00,52.8,33.1,30.06,NNW,327,0.0,0.0,47,0.00,,,0.00,WeatherCatV1.11B39,2013-02-07 00:19:00,
2013-02-06 19:24:00,52.4,33.8,30.06,NNW,327,4.0,5.0,49,0.00,,,0.00,WeatherCatV1.11B39,2013-02-07 00:24:00,
2013-02-06 19:29:00,51.7,32.6,30.06,NNW,327,4.0,5.0,48,0.00,,,0.00,WeatherCatV1.11B39,2013-02-07 00:29:00,
2013-02-06 19:34:00,51.4,31.3,30.06,NNW,327,1.0,2.0,46,0.00,,,0.00,WeatherCatV1.11B39,2013-02-07 00:34:00,
2013-02-06 19:39:00,51.2,32.2,30.06,NNW,327,2.0,4.0,48,0.00,,,0.00,WeatherCatV1.11B39,2013-02-07 00:39:00,
2013-02-06 19:44:00,50.9,31.4,30.06,NNW,327,2.0,2.0,47,0.00,,,0.00,WeatherCatV1.11B39,2013-02-07 00:44:00,
2013-02-06 19:49:00,50.6,31.1,30.06,NNW,327,4.0,4.0,47,0.00,,,0.00,WeatherCatV1.11B39,2013-02-07 00:49:00,
2013-02-06 19:54:00,50.3,31.4,30.06,NNW,327,2.0,4.0,48,0.00,,,0.00,WeatherCatV1.11B39,2013-02-07 00:54:00,
2013-02-06 19:59:00,50.1,31.2,30.06,NNW,327,0.0,0.0,48,0.00,,,0.00,WeatherCatV1.11B39,2013-02-07 00:59:00,
2013-02-06 20:04:00,50.0,31.1,30.06,NNW,327,1.0,2.0,48,0.00,,,0.00,WeatherCatV1.11B39,2013-02-07 01:04:00,
2013-02-06 20:09:00,49.8,30.4,30.07,NNW,327,0.0,1.0,47,0.00,,,0.00,WeatherCatV1.11B39,2013-02-07 01:09:00,
2013-02-06 20:14:00,49.6,31.2,30.08,NNW,327,4.0,4.0,49,0.00,,,0.00,WeatherCatV1.11B39,2013-02-07 01:14:00,
2013-02-06 20:19:00,49.4,31.0,30.09,NNW,327,2.0,4.0,49,0.00,,,0.00,WeatherCatV1.11B39,2013-02-07 01:19:00,
2013-02-06 20:24:00,49.4,31.5,30.08,NNW,327,0.0,0.0,50,0.00,,,0.00,WeatherCatV1.11B39,2013-02-07 01:24:00,
2013-02-06 20:29:00,49.2,31.4,30.08,NNW,327,1.0,2.0,50,0.00,,,0.00,WeatherCatV1.11B39,2013-02-07 01:29:00,
2013-02-06 20:34:00,48.8,30.5,30.09,NNW,327,4.0,4.0,49,0.00,,,0.00,WeatherCatV1.11B39,2013-02-07 01:34:00,
2013-02-06 20:39:00,48.6,31.3,30.08,NNW,327,2.0,2.0,51,0.00,,,0.00,WeatherCatV1.11B39,2013-02-07 01:39:00,
2013-02-06 20:44:00,48.3,31.0,30.08,NNW,327,2.0,4.0,51,0.00,,,0.00,WeatherCatV1.11B39,2013-02-07 01:44:00,
2013-02-06 20:49:00,48.1,31.3,30.08,NNW,327,1.0,4.0,52,0.00,,,0.00,WeatherCatV1.11B39,2013-02-07 01:49:00,
2013-02-06 20:54:00,48.2,31.4,30.08,NNW,327,2.0,4.0,52,0.00,,,0.00,WeatherCatV1.11B39,2013-02-07 01:54:00,
2013-02-06 20:59:00,47.8,31.5,30.08,NNW,327,1.0,4.0,53,0.00,,,0.00,WeatherCatV1.11B39,2013-02-07 01:59:00,
2013-02-06 21:04:00,47.6,30.9,30.08,NNW,327,0.0,0.0,52,0.00,,,0.00,WeatherCatV1.11B39,2013-02-07 02:04:00,
2013-02-06 21:09:00,47.3,31.5,30.09,NNW,327,0.0,0.0,54,0.00,,,0.00,WeatherCatV1.11B39,2013-02-07 02:09:00,
2013-02-06 21:14:00,47.0,31.7,30.09,NNW,327,0.0,0.0,55,0.00,,,0.00,WeatherCatV1.11B39,2013-02-07 02:14:00,
2013-02-06 21:19:00,46.6,31.3,30.09,NNW,327,0.0,2.0,55,0.00,,,0.00,WeatherCatV1.11B39,2013-02-07 02:19:00,
2013-02-06 21:24:00,46.4,31.6,30.09,NNW,327,0.0,0.0,56,0.00,,,0.00,WeatherCatV1.11B39,2013-02-07 02:24:00,
2013-02-06 21:29:00,45.8,31.9,30.08,NNW,327,2.0,4.0,58,0.00,,,0.00,WeatherCatV1.11B39,2013-02-07 02:29:00,
2013-02-06 21:34:00,45.4,31.9,30.08,NNW,327,1.0,2.0,59,0.00,,,0.00,WeatherCatV1.11B39,2013-02-07 02:34:00,
2013-02-06 21:39:00,45.1,31.6,30.08,NNW,327,0.0,0.0,59,0.00,,,0.00,WeatherCatV1.11B39,2013-02-07 02:39:00,
2013-02-06 21:44:00,45.0,32.0,30.08,NNW,327,0.0,0.0,60,0.00,,,0.00,WeatherCatV1.11B39,2013-02-07 02:44:00,
2013-02-06 21:49:00,44.8,31.8,30.08,NNW,327,0.0,2.0,60,0.00,,,0.00,WeatherCatV1.11B39,2013-02-07 02:49:00,
2013-02-06 21:54:00,44.5,31.9,30.08,NNW,327,0.0,0.0,61,0.00,,,0.00,WeatherCatV1.11B39,2013-02-07 02:54:00,
2013-02-06 21:59:00,44.2,32.8,30.08,NNW,327,0.0,0.0,64,0.00,,,0.00,WeatherCatV1.11B39,2013-02-07 02:59:00,
2013-02-06 22:04:00,43.8,32.0,30.08,NNW,327,0.0,0.0,63,0.00,,,0.00,WeatherCatV1.11B39,2013-02-07 03:04:00,
2013-02-06 22:09:00,43.6,32.6,30.08,NNW,327,0.0,0.0,65,0.00,,,0.00,WeatherCatV1.11B39,2013-02-07 03:09:00,
2013-02-06 22:14:00,43.3,32.7,30.09,NNW,327,0.0,0.0,66,0.00,,,0.00,WeatherCatV1.11B39,2013-02-07 03:14:00,
2013-02-06 22:19:00,43.1,32.5,30.09,NNW,327,0.0,0.0,66,0.00,,,0.00,WeatherCatV1.11B39,2013-02-07 03:19:00,
2013-02-06 22:24:00,42.9,32.7,30.09,NNW,327,0.0,0.0,67,0.00,,,0.00,WeatherCatV1.11B39,2013-02-07 03:24:00,
2013-02-06 22:29:00,42.8,32.6,30.09,NNW,327,0.0,0.0,67,0.00,,,0.00,WeatherCatV1.11B39,2013-02-07 03:29:00,
2013-02-06 22:34:00,42.5,32.3,30.09,NNW,327,0.0,0.0,67,0.00,,,0.00,WeatherCatV1.11B39,2013-02-07 03:34:00,
2013-02-06 22:39:00,42.3,32.1,30.09,NNW,327,0.0,0.0,67,0.00,,,0.00,WeatherCatV1.11B39,2013-02-07 03:39:00,
2013-02-06 22:44:00,42.2,32.4,30.09,NNW,327,0.0,0.0,68,0.00,,,0.00,WeatherCatV1.11B39,2013-02-07 03:44:00,
2013-02-06 22:49:00,42.0,32.9,30.09,NNW,327,0.0,0.0,70,0.00,,,0.00,WeatherCatV1.11B39,2013-02-07 03:49:00,
2013-02-06 22:54:00,41.9,32.8,30.09,NNW,327,0.0,0.0,70,0.00,,,0.00,WeatherCatV1.11B39,2013-02-07 03:54:00,
2013-02-06 22:59:00,41.8,32.7,30.08,NNW,327,0.0,0.0,70,0.00,,,0.00,WeatherCatV1.11B39,2013-02-07 03:59:00,
2013-02-06 23:03:00,41.8,32.4,30.08,NNW,327,0.0,0.0,69,0.00,,,0.00,WeatherCatV1.11B39,2013-02-07 04:03:00,
2013-02-06 23:08:00,41.7,32.3,30.08,NNW,327,0.0,0.0,69,0.00,,,0.00,WeatherCatV1.11B39,2013-02-07 04:08:00,
2013-02-06 23:13:00,41.6,32.2,30.08,NNW,327,2.0,2.0,69,0.00,,,0.00,WeatherCatV1.11B39,2013-02-07 04:13:00,
2013-02-06 23:18:00,41.5,32.1,30.07,NNW,327,2.0,2.0,69,0.00,,,0.00,WeatherCatV1.11B39,2013-02-07 04:18:00,
2013-02-06 23:23:00,41.5,31.7,30.07,NNW,327,0.0,1.0,68,0.00,,,0.00,WeatherCatV1.11B39,2013-02-07 04:23:00,
2013-02-06 23:28:00,41.5,32.1,30.08,NNW,327,0.0,0.0,69,0.00,,,0.00,WeatherCatV1.11B39,2013-02-07 04:28:00,
2013-02-06 23:33:00,41.5,32.1,30.07,NNW,327,0.0,0.0,69,0.00,,,0.00,WeatherCatV1.11B39,2013-02-07 04:33:00,
2013-02-06 23:38:00,41.4,32.0,30.07,NNW,327,0.0,0.0,69,0.00,,,0.00,WeatherCatV1.11B39,2013-02-07 04:38:00,
2013-02-06 23:43:00,41.4,31.6,30.07,NNW,327,0.0,0.0,68,0.00,,,0.00,WeatherCatV1.11B39,2013-02-07 04:43:00,
2013-02-06 23:48:00,41.2,31.8,30.07,NNW,327,0.0,0.0,69,0.00,,,0.00,WeatherCatV1.11B39,2013-02-07 04:48:00,
2013-02-06 23:53:00,41.1,31.7,30.08,NNW,327,0.0,0.0,69,0.00,,,0.00,WeatherCatV1.11B39,2013-02-07 04:53:00,
2013-02-06 23:58:00,40.9,32.6,30.08,NNW,327,2.0,2.0,72,0.00,,,0.00,WeatherCatV1.11B39,2013-02-07 04:58:00,